Forest Home, Alabama
Current Conditions -  °F | °C
As of 12:56 PM on Sunday 21 Dec 2014 (Local Time) from KPRN Reporting Station
Overcast Overcast  
Wind Chill: 59°   Ceiling: 2000
Heat Index: 59°   Visibility: 10mi
Dew Point: 50°   Wind: 5mph
Humidity: 72%   Direction: 30°NNE
Pressure: 30.04"   Gusts: NA
Location:  31.86°N, 86.84°W
Report Text: KPRN 211856Z AUTO 03004KT 10SM OVC020 15/10 A3004 RMK AO2 SLP172 T01500100
Loading
Personal Weather Stations






























Interactive Weather Map New forecast layout! Learn more

10-Day Weather Forecast

Advertisements
Track Severe Weather on mobile